This is the latest recevied weather packets stored in our database for station/object DB0RV-13. If no packets are shown the sender has not sent any weather packets the latest 10 day(s).
| Time | Temp. | Humidity | Pressure | Rain* | Wind** | Luminosity | Snow |
|---|---|---|---|---|---|---|---|
| 1777792202 | 13.89° C | 64% | 1015.2 hPa | - | - | - | - |
| 1777791902 | 13.89° C | 64% | 1015.1 hPa | - | - | - | - |
| 1777791602 | 13.89° C | 64% | 1015.2 hPa | - | - | - | - |
| 1777791302 | 13.33° C | 65% | 1015.1 hPa | - | - | - | - |
| 1777791002 | 13.33° C | 66% | 1015.1 hPa | - | - | - | - |
| 1777790702 | 12.78° C | 67% | 1015.1 hPa | - | - | - | - |
| 1777790402 | 12.22° C | 68% | 1015.1 hPa | - | - | - | - |
| 1777790101 | 11.67° C | 69% | 1015.1 hPa | - | - | - | - |
| 1777789803 | 12.22° C | 68% | 1014.9 hPa | - | - | - | - |
| 1777789501 | 12.78° C | 67% | 1015.1 hPa | - | - | - | - |
| 1777789202 | 12.78° C | 67% | 1015 hPa | - | - | - | - |
| 1777788901 | 12.22° C | 69% | 1015.1 hPa | - | - | - | - |
| 1777788602 | 11.67° C | 70% | 1015.1 hPa | - | - | - | - |
| 1777788301 | 12.22° C | 67% | 1015 hPa | - | - | - | - |
| 1777788002 | 11.67° C | 67% | 1015 hPa | - | - | - | - |
| 1777787702 | 11.11° C | 70% | 1015.1 hPa | - | - | - | - |
| 1777787402 | 11.11° C | 68% | 1015 hPa | - | - | - | - |
| 1777787102 | 11.11° C | 69% | 1015 hPa | - | - | - | - |
| 1777786801 | 10.56° C | 70% | 1015 hPa | - | - | - | - |
| 1777786502 | 10.56° C | 69% | 1015 hPa | - | - | - | - |
| 1777786201 | 10.56° C | 70% | 1015 hPa | - | - | - | - |
| 1777785902 | 10° C | 71% | 1015 hPa | - | - | - | - |
| 1777785601 | 10° C | 71% | 1015 hPa | - | - | - | - |
| 1777785302 | 10° C | 71% | 1015 hPa | - | - | - | - |
| 1777785002 | 10° C | 71% | 1015.1 hPa | - | - | - | - |
* Rain since midnight (hover to see other rain measurements)
** Current wind speed in m/s (hover to see current wind gust speed)